sensor_id;sensor_type;location;lat;lon;timestamp;temperature;humidity
2663;DHT22;49701;48.072;7.800;2023-11-22T00:01:59;9.20;99.90
2663;DHT22;49701;48.072;7.800;2023-11-22T00:04:25;9.20;99.90
2663;DHT22;49701;48.072;7.800;2023-11-22T00:06:50;9.20;99.90
2663;DHT22;49701;48.072;7.800;2023-11-22T00:09:16;9.20;99.90
2663;DHT22;49701;48.072;7.800;2023-11-22T00:11:41;9.20;99.90
2663;DHT22;49701;48.072;7.800;2023-11-22T00:14:07;9.20;99.90
2663;DHT22;49701;48.072;7.800;2023-11-22T00:16:32;9.20;99.90
2663;DHT22;49701;48.072;7.800;2023-11-22T00:18:59;9.20;99.90
2663;DHT22;49701;48.072;7.800;2023-11-22T00:21:25;9.20;99.90
2663;DHT22;49701;48.072;7.800;2023-11-22T00:23:51;9.20;99.90
2663;DHT22;49701;48.072;7.800;2023-11-22T00:26:16;9.20;99.90
2663;DHT22;49701;48.072;7.800;2023-11-22T00:28:51;9.10;99.90
2663;DHT22;49701;48.072;7.800;2023-11-22T00:31:18;9.10;99.90
2663;DHT22;49701;48.072;7.800;2023-11-22T00:33:44;9.10;99.90
2663;DHT22;49701;48.072;7.800;2023-11-22T00:36:10;9.00;99.90
2663;DHT22;49701;48.072;7.800;2023-11-22T00:38:35;9.00;99.90
2663;DHT22;49701;48.072;7.800;2023-11-22T00:41:02;9.00;99.90
2663;DHT22;49701;48.072;7.800;2023-11-22T00:43:28;9.00;99.90
2663;DHT22;49701;48.072;7.800;2023-11-22T00:45:55;9.00;99.90
2663;DHT22;49701;48.072;7.800;2023-11-22T00:48:22;9.00;99.90
2663;DHT22;49701;48.072;7.800;2023-11-22T00:50:48;9.00;99.90
2663;DHT22;49701;48.072;7.800;2023-11-22T00:53:13;9.00;99.90
2663;DHT22;49701;48.072;7.800;2023-11-22T00:55:40;9.00;99.90
2663;DHT22;49701;48.072;7.800;2023-11-22T00:58:05;8.90;99.90
2663;DHT22;49701;48.072;7.800;2023-11-22T01:00:32;8.90;99.90
2663;DHT22;49701;48.072;7.800;2023-11-22T01:02:59;8.90;99.90
2663;DHT22;49701;48.072;7.800;2023-11-22T01:05:24;8.90;99.90
2663;DHT22;49701;48.072;7.800;2023-11-22T01:07:50;8.90;99.90
2663;DHT22;49701;48.072;7.800;2023-11-22T01:10:15;8.90;99.90
2663;DHT22;49701;48.072;7.800;2023-11-22T01:12:41;8.90;99.90
2663;DHT22;49701;48.072;7.800;2023-11-22T01:15:07;8.90;99.90
2663;DHT22;49701;48.072;7.800;2023-11-22T01:17:33;8.90;99.90
2663;DHT22;49701;48.072;7.800;2023-11-22T01:20:01;8.90;99.90
2663;DHT22;49701;48.072;7.800;2023-11-22T01:22:26;8.90;99.90
2663;DHT22;49701;48.072;7.800;2023-11-22T01:24:53;8.90;99.90
2663;DHT22;49701;48.072;7.800;2023-11-22T01:27:19;9.00;99.90
2663;DHT22;49701;48.072;7.800;2023-11-22T01:29:44;9.00;99.90
2663;DHT22;49701;48.072;7.800;2023-11-22T01:32:10;9.00;99.90
2663;DHT22;49701;48.072;7.800;2023-11-22T01:34:36;9.00;99.90
2663;DHT22;49701;48.072;7.800;2023-11-22T01:37:02;9.00;99.90
2663;DHT22;49701;48.072;7.800;2023-11-22T01:39:29;9.00;99.90
2663;DHT22;49701;48.072;7.800;2023-11-22T01:41:54;9.00;99.90
2663;DHT22;49701;48.072;7.800;2023-11-22T01:44:21;9.00;99.90
2663;DHT22;49701;48.072;7.800;2023-11-22T01:46:46;9.00;99.90
2663;DHT22;49701;48.072;7.800;2023-11-22T01:49:12;9.00;99.90
2663;DHT22;49701;48.072;7.800;2023-11-22T01:51:37;9.00;99.90
2663;DHT22;49701;48.072;7.800;2023-11-22T01:54:03;9.00;99.90
2663;DHT22;49701;48.072;7.800;2023-11-22T01:56:29;9.10;99.90
2663;DHT22;49701;48.072;7.800;2023-11-22T01:58:56;9.10;99.90
2663;DHT22;49701;48.072;7.800;2023-11-22T02:01:23;9.10;99.90
2663;DHT22;49701;48.072;7.800;2023-11-22T02:03:49;9.10;99.90
2663;DHT22;49701;48.072;7.800;2023-11-22T02:06:17;9.10;99.90
2663;DHT22;49701;48.072;7.800;2023-11-22T02:08:43;9.10;99.90
2663;DHT22;49701;48.072;7.800;2023-11-22T02:11:09;9.00;99.90
2663;DHT22;49701;48.072;7.800;2023-11-22T02:13:34;9.00;99.90
2663;DHT22;49701;48.072;7.800;2023-11-22T02:16:02;9.00;99.90
2663;DHT22;49701;48.072;7.800;2023-11-22T02:18:28;9.00;99.90
2663;DHT22;49701;48.072;7.800;2023-11-22T02:20:55;9.00;99.90
2663;DHT22;49701;48.072;7.800;2023-11-22T02:23:21;8.90;99.90
2663;DHT22;49701;48.072;7.800;2023-11-22T02:25:47;8.80;99.90
2663;DHT22;49701;48.072;7.800;2023-11-22T02:28:12;8.80;99.90
2663;DHT22;49701;48.072;7.800;2023-11-22T02:30:39;8.70;99.90
2663;DHT22;49701;48.072;7.800;2023-11-22T02:33:04;8.60;99.90
2663;DHT22;49701;48.072;7.800;2023-11-22T02:35:30;8.50;99.90
2663;DHT22;49701;48.072;7.800;2023-11-22T02:37:57;8.50;99.90
2663;DHT22;49701;48.072;7.800;2023-11-22T02:40:23;8.50;99.90
2663;DHT22;49701;48.072;7.800;2023-11-22T02:42:50;8.40;99.90
2663;DHT22;49701;48.072;7.800;2023-11-22T02:45:16;8.40;99.90
2663;DHT22;49701;48.072;7.800;2023-11-22T02:47:43;8.30;99.90
2663;DHT22;49701;48.072;7.800;2023-11-22T02:50:10;8.30;99.90
2663;DHT22;49701;48.072;7.800;2023-11-22T02:52:37;8.20;99.90
2663;DHT22;49701;48.072;7.800;2023-11-22T02:55:03;8.20;99.90
2663;DHT22;49701;48.072;7.800;2023-11-22T02:57:30;8.10;99.90
2663;DHT22;49701;48.072;7.800;2023-11-22T02:59:56;8.00;99.90
2663;DHT22;49701;48.072;7.800;2023-11-22T03:02:22;8.00;99.90
2663;DHT22;49701;48.072;7.800;2023-11-22T03:04:47;8.00;99.90
2663;DHT22;49701;48.072;7.800;2023-11-22T03:07:13;7.90;99.90
2663;DHT22;49701;48.072;7.800;2023-11-22T03:09:39;7.90;99.90
2663;DHT22;49701;48.072;7.800;2023-11-22T03:12:06;7.80;99.90
2663;DHT22;49701;48.072;7.800;2023-11-22T03:14:34;7.80;99.90
2663;DHT22;49701;48.072;7.800;2023-11-22T03:16:59;7.70;99.90
2663;DHT22;49701;48.072;7.800;2023-11-22T03:19:25;7.70;99.90
2663;DHT22;49701;48.072;7.800;2023-11-22T03:21:50;7.60;99.90
2663;DHT22;49701;48.072;7.800;2023-11-22T03:24:16;7.60;99.90
2663;DHT22;49701;48.072;7.800;2023-11-22T03:26:42;7.50;99.90
2663;DHT22;49701;48.072;7.800;2023-11-22T03:29:07;7.50;99.90
2663;DHT22;49701;48.072;7.800;2023-11-22T03:31:33;7.50;99.90
2663;DHT22;49701;48.072;7.800;2023-11-22T03:33:58;7.40;99.90
2663;DHT22;49701;48.072;7.800;2023-11-22T03:36:25;7.40;99.90
2663;DHT22;49701;48.072;7.800;2023-11-22T03:38:51;7.30;99.90
2663;DHT22;49701;48.072;7.800;2023-11-22T03:41:16;7.30;99.90
2663;DHT22;49701;48.072;7.800;2023-11-22T03:43:46;7.20;99.90
2663;DHT22;49701;48.072;7.800;2023-11-22T03:46:12;7.20;99.90
2663;DHT22;49701;48.072;7.800;2023-11-22T03:48:39;7.10;99.90
2663;DHT22;49701;48.072;7.800;2023-11-22T03:51:05;7.10;99.90
2663;DHT22;49701;48.072;7.800;2023-11-22T03:53:31;7.00;99.90
2663;DHT22;49701;48.072;7.800;2023-11-22T03:55:57;6.90;99.90
2663;DHT22;49701;48.072;7.800;2023-11-22T03:58:23;6.90;99.90
2663;DHT22;49701;48.072;7.800;2023-11-22T04:00:48;6.80;99.90
2663;DHT22;49701;48.072;7.800;2023-11-22T04:03:14;6.70;99.90
2663;DHT22;49701;48.072;7.800;2023-11-22T04:05:39;6.70;99.90
2663;DHT22;49701;48.072;7.800;2023-11-22T04:08:05;6.60;99.90
2663;DHT22;49701;48.072;7.800;2023-11-22T04:10:30;6.60;99.90
2663;DHT22;49701;48.072;7.800;2023-11-22T04:12:56;6.50;99.90
2663;DHT22;49701;48.072;7.800;2023-11-22T04:15:22;6.50;99.90
2663;DHT22;49701;48.072;7.800;2023-11-22T04:17:47;6.40;99.90
2663;DHT22;49701;48.072;7.800;2023-11-22T04:20:14;6.40;99.90
2663;DHT22;49701;48.072;7.800;2023-11-22T04:22:40;6.40;99.90
2663;DHT22;49701;48.072;7.800;2023-11-22T04:25:06;6.30;99.90
2663;DHT22;49701;48.072;7.800;2023-11-22T04:27:34;6.30;99.90
2663;DHT22;49701;48.072;7.800;2023-11-22T04:29:59;6.30;99.90
2663;DHT22;49701;48.072;7.800;2023-11-22T04:32:25;6.30;99.90
2663;DHT22;49701;48.072;7.800;2023-11-22T04:34:50;6.20;99.90
2663;DHT22;49701;48.072;7.800;2023-11-22T04:37:16;6.20;99.90
2663;DHT22;49701;48.072;7.800;2023-11-22T04:39:41;6.20;99.90
2663;DHT22;49701;48.072;7.800;2023-11-22T04:42:07;6.20;99.90
2663;DHT22;49701;48.072;7.800;2023-11-22T04:44:32;6.20;99.90
2663;DHT22;49701;48.072;7.800;2023-11-22T04:46:58;6.20;99.90
2663;DHT22;49701;48.072;7.800;2023-11-22T04:49:27;6.20;99.90
2663;DHT22;49701;48.072;7.800;2023-11-22T04:51:52;6.20;99.90
2663;DHT22;49701;48.072;7.800;2023-11-22T04:54:18;6.20;99.90
2663;DHT22;49701;48.072;7.800;2023-11-22T04:56:44;6.20;99.90
2663;DHT22;49701;48.072;7.800;2023-11-22T04:59:09;6.20;99.90
2663;DHT22;49701;48.072;7.800;2023-11-22T05:01:35;6.20;99.90
2663;DHT22;49701;48.072;7.800;2023-11-22T05:04:01;6.20;99.90
2663;DHT22;49701;48.072;7.800;2023-11-22T05:06:26;6.30;99.90
2663;DHT22;49701;48.072;7.800;2023-11-22T05:08:54;6.30;99.90
2663;DHT22;49701;48.072;7.800;2023-11-22T05:11:20;6.30;99.90
2663;DHT22;49701;48.072;7.800;2023-11-22T05:13:46;6.30;99.90
2663;DHT22;49701;48.072;7.800;2023-11-22T05:16:11;6.30;99.90
2663;DHT22;49701;48.072;7.800;2023-11-22T05:18:37;6.20;99.90
2663;DHT22;49701;48.072;7.800;2023-11-22T05:21:02;6.30;99.90
2663;DHT22;49701;48.072;7.800;2023-11-22T05:23:31;6.20;99.90
2663;DHT22;49701;48.072;7.800;2023-11-22T05:25:57;6.20;99.90
2663;DHT22;49701;48.072;7.800;2023-11-22T05:28:25;6.30;99.90
2663;DHT22;49701;48.072;7.800;2023-11-22T05:30:50;6.30;99.90
2663;DHT22;49701;48.072;7.800;2023-11-22T05:33:16;6.20;99.90
2663;DHT22;49701;48.072;7.800;2023-11-22T05:35:41;6.10;99.90
2663;DHT22;49701;48.072;7.800;2023-11-22T05:38:07;6.10;99.90
2663;DHT22;49701;48.072;7.800;2023-11-22T05:40:34;6.10;99.90
2663;DHT22;49701;48.072;7.800;2023-11-22T05:42:59;6.10;99.90
2663;DHT22;49701;48.072;7.800;2023-11-22T05:45:25;6.00;99.90
2663;DHT22;49701;48.072;7.800;2023-11-22T05:47:51;6.00;99.90
2663;DHT22;49701;48.072;7.800;2023-11-22T05:50:17;6.00;99.90
2663;DHT22;49701;48.072;7.800;2023-11-22T05:52:43;6.00;99.90
2663;DHT22;49701;48.072;7.800;2023-11-22T05:55:09;6.00;99.90
2663;DHT22;49701;48.072;7.800;2023-11-22T05:57:35;6.00;99.90
2663;DHT22;49701;48.072;7.800;2023-11-22T06:00:00;5.90;99.90
2663;DHT22;49701;48.072;7.800;2023-11-22T06:02:26;5.90;99.90
2663;DHT22;49701;48.072;7.800;2023-11-22T06:04:52;5.90;99.90
2663;DHT22;49701;48.072;7.800;2023-11-22T06:07:17;5.90;99.90
2663;DHT22;49701;48.072;7.800;2023-11-22T06:09:43;5.90;99.90
2663;DHT22;49701;48.072;7.800;2023-11-22T06:12:08;5.80;99.90
2663;DHT22;49701;48.072;7.800;2023-11-22T06:14:34;5.80;99.90
2663;DHT22;49701;48.072;7.800;2023-11-22T06:17:00;5.80;99.90
2663;DHT22;49701;48.072;7.800;2023-11-22T06:19:25;5.70;99.90
2663;DHT22;49701;48.072;7.800;2023-11-22T06:21:51;5.80;99.90
2663;DHT22;49701;48.072;7.800;2023-11-22T06:24:16;5.80;99.90
2663;DHT22;49701;48.072;7.800;2023-11-22T06:26:42;5.70;99.90
2663;DHT22;49701;48.072;7.800;2023-11-22T06:29:08;5.70;99.90
2663;DHT22;49701;48.072;7.800;2023-11-22T06:31:33;5.70;99.90
2663;DHT22;49701;48.072;7.800;2023-11-22T06:33:59;5.70;99.90
2663;DHT22;49701;48.072;7.800;2023-11-22T06:36:26;5.70;99.90
2663;DHT22;49701;48.072;7.800;2023-11-22T06:38:53;5.70;99.90
2663;DHT22;49701;48.072;7.800;2023-11-22T06:41:19;5.70;99.90
2663;DHT22;49701;48.072;7.800;2023-11-22T06:43:47;5.60;99.90
2663;DHT22;49701;48.072;7.800;2023-11-22T06:46:13;5.60;99.90
2663;DHT22;49701;48.072;7.800;2023-11-22T06:48:42;5.60;99.90
2663;DHT22;49701;48.072;7.800;2023-11-22T06:51:09;5.50;99.90
2663;DHT22;49701;48.072;7.800;2023-11-22T06:53:35;5.50;99.90
2663;DHT22;49701;48.072;7.800;2023-11-22T06:56:01;5.50;99.90
2663;DHT22;49701;48.072;7.800;2023-11-22T06:58:27;5.50;99.90
2663;DHT22;49701;48.072;7.800;2023-11-22T07:00:52;5.50;99.90
2663;DHT22;49701;48.072;7.800;2023-11-22T07:03:18;5.50;99.90
2663;DHT22;49701;48.072;7.800;2023-11-22T07:05:45;5.50;99.90
2663;DHT22;49701;48.072;7.800;2023-11-22T07:08:11;5.50;99.90
2663;DHT22;49701;48.072;7.800;2023-11-22T07:10:37;5.50;99.90
2663;DHT22;49701;48.072;7.800;2023-11-22T07:13:03;5.40;99.90
2663;DHT22;49701;48.072;7.800;2023-11-22T07:15:29;5.40;99.90
2663;DHT22;49701;48.072;7.800;2023-11-22T07:17:54;5.30;99.90
2663;DHT22;49701;48.072;7.800;2023-11-22T07:20:20;5.30;99.90
2663;DHT22;49701;48.072;7.800;2023-11-22T07:22:46;5.20;99.90
2663;DHT22;49701;48.072;7.800;2023-11-22T07:25:12;5.20;99.90
2663;DHT22;49701;48.072;7.800;2023-11-22T07:27:45;5.10;99.90
2663;DHT22;49701;48.072;7.800;2023-11-22T07:30:12;5.10;99.90
2663;DHT22;49701;48.072;7.800;2023-11-22T07:32:39;5.10;99.90
2663;DHT22;49701;48.072;7.800;2023-11-22T07:35:06;5.00;99.90
2663;DHT22;49701;48.072;7.800;2023-11-22T07:37:34;5.10;99.90
2663;DHT22;49701;48.072;7.800;2023-11-22T07:40:01;5.10;99.90
2663;DHT22;49701;48.072;7.800;2023-11-22T07:42:30;5.00;99.90
2663;DHT22;49701;48.072;7.800;2023-11-22T07:44:56;5.00;99.90
2663;DHT22;49701;48.072;7.800;2023-11-22T07:47:22;5.00;99.90
2663;DHT22;49701;48.072;7.800;2023-11-22T07:49:53;4.90;99.90
2663;DHT22;49701;48.072;7.800;2023-11-22T07:52:21;4.90;99.90
2663;DHT22;49701;48.072;7.800;2023-11-22T07:54:47;4.90;99.90
2663;DHT22;49701;48.072;7.800;2023-11-22T07:57:13;4.90;99.90
2663;DHT22;49701;48.072;7.800;2023-11-22T07:59:39;4.90;99.90
2663;DHT22;49701;48.072;7.800;2023-11-22T08:02:05;4.90;99.90
2663;DHT22;49701;48.072;7.800;2023-11-22T08:04:36;4.90;99.90
2663;DHT22;49701;48.072;7.800;2023-11-22T08:07:01;4.90;99.90
2663;DHT22;49701;48.072;7.800;2023-11-22T08:09:27;4.90;99.90
2663;DHT22;49701;48.072;7.800;2023-11-22T08:11:58;4.90;99.90
2663;DHT22;49701;48.072;7.800;2023-11-22T08:14:24;5.00;99.90
2663;DHT22;49701;48.072;7.800;2023-11-22T08:16:53;5.00;99.90
2663;DHT22;49701;48.072;7.800;2023-11-22T08:19:18;5.00;99.90
2663;DHT22;49701;48.072;7.800;2023-11-22T08:21:44;5.00;99.90
2663;DHT22;49701;48.072;7.800;2023-11-22T08:24:09;5.00;99.90
2663;DHT22;49701;48.072;7.800;2023-11-22T08:26:38;5.00;99.90
2663;DHT22;49701;48.072;7.800;2023-11-22T08:29:04;5.00;99.90
2663;DHT22;49701;48.072;7.800;2023-11-22T08:31:30;5.00;99.90
2663;DHT22;49701;48.072;7.800;2023-11-22T08:33:55;5.00;99.90
2663;DHT22;49701;48.072;7.800;2023-11-22T08:36:22;5.00;99.90
2663;DHT22;49701;48.072;7.800;2023-11-22T08:38:49;5.00;99.90
2663;DHT22;49701;48.072;7.800;2023-11-22T08:41:14;5.10;99.90
2663;DHT22;49701;48.072;7.800;2023-11-22T08:43:40;5.10;99.90
2663;DHT22;49701;48.072;7.800;2023-11-22T08:46:06;5.20;99.90
2663;DHT22;49701;48.072;7.800;2023-11-22T08:48:34;5.20;99.90
2663;DHT22;49701;48.072;7.800;2023-11-22T08:51:00;5.30;99.90
2663;DHT22;49701;48.072;7.800;2023-11-22T08:53:26;5.30;99.90
2663;DHT22;49701;48.072;7.800;2023-11-22T08:55:51;5.40;99.90
2663;DHT22;49701;48.072;7.800;2023-11-22T08:58:20;5.50;99.90
2663;DHT22;49701;48.072;7.800;2023-11-22T09:00:46;5.60;99.90
2663;DHT22;49701;48.072;7.800;2023-11-22T09:03:12;5.60;99.90
2663;DHT22;49701;48.072;7.800;2023-11-22T09:05:42;5.70;99.90
2663;DHT22;49701;48.072;7.800;2023-11-22T09:08:08;5.80;99.90
2663;DHT22;49701;48.072;7.800;2023-11-22T09:10:41;5.80;99.90
2663;DHT22;49701;48.072;7.800;2023-11-22T09:13:08;5.90;99.90
2663;DHT22;49701;48.072;7.800;2023-11-22T09:15:34;5.90;99.90
2663;DHT22;49701;48.072;7.800;2023-11-22T09:18:00;5.90;99.90
2663;DHT22;49701;48.072;7.800;2023-11-22T09:20:26;6.00;99.90
2663;DHT22;49701;48.072;7.800;2023-11-22T09:22:53;5.90;99.90
2663;DHT22;49701;48.072;7.800;2023-11-22T09:25:23;6.00;99.90
2663;DHT22;49701;48.072;7.800;2023-11-22T09:27:54;6.00;99.90
2663;DHT22;49701;48.072;7.800;2023-11-22T09:30:29;5.90;99.90
2663;DHT22;49701;48.072;7.800;2023-11-22T09:33:05;6.00;99.90
2663;DHT22;49701;48.072;7.800;2023-11-22T09:35:31;6.10;99.90
2663;DHT22;49701;48.072;7.800;2023-11-22T09:37:58;6.10;99.90
2663;DHT22;49701;48.072;7.800;2023-11-22T09:40:26;6.10;99.90
2663;DHT22;49701;48.072;7.800;2023-11-22T09:42:58;6.00;99.90
2663;DHT22;49701;48.072;7.800;2023-11-22T09:45:24;6.00;99.90
2663;DHT22;49701;48.072;7.800;2023-11-22T09:47:51;6.00;99.90
2663;DHT22;49701;48.072;7.800;2023-11-22T09:50:23;6.00;99.90
2663;DHT22;49701;48.072;7.800;2023-11-22T09:52:52;6.00;99.90
2663;DHT22;49701;48.072;7.800;2023-11-22T09:55:21;6.10;99.90
2663;DHT22;49701;48.072;7.800;2023-11-22T09:57:52;6.10;99.90
2663;DHT22;49701;48.072;7.800;2023-11-22T10:00:20;6.20;99.90
2663;DHT22;49701;48.072;7.800;2023-11-22T10:02:47;6.20;99.90
2663;DHT22;49701;48.072;7.800;2023-11-22T10:05:13;6.30;99.90
2663;DHT22;49701;48.072;7.800;2023-11-22T10:07:39;6.30;99.90
2663;DHT22;49701;48.072;7.800;2023-11-22T10:10:05;6.30;99.90
2663;DHT22;49701;48.072;7.800;2023-11-22T10:12:32;6.40;99.90
2663;DHT22;49701;48.072;7.800;2023-11-22T10:15:14;6.40;99.90
2663;DHT22;49701;48.072;7.800;2023-11-22T10:20:19;6.50;99.90
2663;DHT22;49701;48.072;7.800;2023-11-22T10:22:45;6.50;99.90
2663;DHT22;49701;48.072;7.800;2023-11-22T10:25:14;6.50;99.90
2663;DHT22;49701;48.072;7.800;2023-11-22T10:27:39;6.50;99.90
2663;DHT22;49701;48.072;7.800;2023-11-22T10:30:07;6.60;99.90
2663;DHT22;49701;48.072;7.800;2023-11-22T10:32:37;6.50;99.90
2663;DHT22;49701;48.072;7.800;2023-11-22T10:35:05;6.50;99.90
2663;DHT22;49701;48.072;7.800;2023-11-22T10:37:31;6.50;99.90
2663;DHT22;49701;48.072;7.800;2023-11-22T10:39:57;6.50;99.90
2663;DHT22;49701;48.072;7.800;2023-11-22T10:42:24;6.40;99.90
2663;DHT22;49701;48.072;7.800;2023-11-22T10:44:55;6.40;99.90
2663;DHT22;49701;48.072;7.800;2023-11-22T10:47:22;6.40;99.90
2663;DHT22;49701;48.072;7.800;2023-11-22T10:49:49;6.40;99.90
2663;DHT22;49701;48.072;7.800;2023-11-22T10:52:18;6.40;99.90
2663;DHT22;49701;48.072;7.800;2023-11-22T10:54:50;6.30;99.90
2663;DHT22;49701;48.072;7.800;2023-11-22T10:57:22;6.30;99.90
2663;DHT22;49701;48.072;7.800;2023-11-22T10:59:54;6.30;99.90
2663;DHT22;49701;48.072;7.800;2023-11-22T11:02:21;6.20;99.90
2663;DHT22;49701;48.072;7.800;2023-11-22T11:04:58;6.20;99.90
2663;DHT22;49701;48.072;7.800;2023-11-22T11:07:26;6.10;99.90
2663;DHT22;49701;48.072;7.800;2023-11-22T11:09:56;6.00;99.90
2663;DHT22;49701;48.072;7.800;2023-11-22T11:12:23;6.00;99.90
2663;DHT22;49701;48.072;7.800;2023-11-22T11:14:50;6.00;99.90
2663;DHT22;49701;48.072;7.800;2023-11-22T11:17:17;6.10;99.90
2663;DHT22;49701;48.072;7.800;2023-11-22T11:19:43;6.10;99.90
2663;DHT22;49701;48.072;7.800;2023-11-22T11:22:09;6.10;99.90
2663;DHT22;49701;48.072;7.800;2023-11-22T11:24:40;6.00;99.90
2663;DHT22;49701;48.072;7.800;2023-11-22T11:27:10;6.00;99.90
2663;DHT22;49701;48.072;7.800;2023-11-22T11:29:36;5.90;99.90
2663;DHT22;49701;48.072;7.800;2023-11-22T11:32:31;5.90;99.90
2663;DHT22;49701;48.072;7.800;2023-11-22T11:34:57;5.90;99.90
2663;DHT22;49701;48.072;7.800;2023-11-22T11:37:25;5.90;99.90
2663;DHT22;49701;48.072;7.800;2023-11-22T11:39:51;5.80;99.90
2663;DHT22;49701;48.072;7.800;2023-11-22T11:42:16;5.80;99.90
2663;DHT22;49701;48.072;7.800;2023-11-22T11:47:24;5.80;99.90
2663;DHT22;49701;48.072;7.800;2023-11-22T11:49:50;5.80;99.90
2663;DHT22;49701;48.072;7.800;2023-11-22T11:52:16;5.80;99.90
2663;DHT22;49701;48.072;7.800;2023-11-22T11:54:42;5.80;99.90
2663;DHT22;49701;48.072;7.800;2023-11-22T11:57:07;5.80;99.90
2663;DHT22;49701;48.072;7.800;2023-11-22T11:59:33;5.70;99.90
2663;DHT22;49701;48.072;7.800;2023-11-22T12:02:00;5.70;99.90
2663;DHT22;49701;48.072;7.800;2023-11-22T12:04:26;5.60;99.90
2663;DHT22;49701;48.072;7.800;2023-11-22T12:06:52;5.60;99.90
2663;DHT22;49701;48.072;7.800;2023-11-22T12:09:24;5.60;99.90
2663;DHT22;49701;48.072;7.800;2023-11-22T12:11:50;5.60;99.90
2663;DHT22;49701;48.072;7.800;2023-11-22T12:14:16;5.60;99.90
2663;DHT22;49701;48.072;7.800;2023-11-22T12:16:42;5.60;99.90
2663;DHT22;49701;48.072;7.800;2023-11-22T12:19:20;5.60;99.90
2663;DHT22;49701;48.072;7.800;2023-11-22T12:21:46;5.50;99.90
2663;DHT22;49701;48.072;7.800;2023-11-22T12:24:11;5.50;99.90
2663;DHT22;49701;48.072;7.800;2023-11-22T12:26:39;5.50;99.90
2663;DHT22;49701;48.072;7.800;2023-11-22T12:29:05;5.50;99.90
2663;DHT22;49701;48.072;7.800;2023-11-22T12:31:34;5.50;99.90
2663;DHT22;49701;48.072;7.800;2023-11-22T12:33:59;5.50;99.90
2663;DHT22;49701;48.072;7.800;2023-11-22T12:36:25;5.50;99.90
2663;DHT22;49701;48.072;7.800;2023-11-22T12:38:50;5.50;99.90
2663;DHT22;49701;48.072;7.800;2023-11-22T12:41:16;5.40;99.90
2663;DHT22;49701;48.072;7.800;2023-11-22T12:43:43;5.50;99.90
2663;DHT22;49701;48.072;7.800;2023-11-22T12:46:08;5.40;99.90
2663;DHT22;49701;48.072;7.800;2023-11-22T12:48:39;5.40;99.90
2663;DHT22;49701;48.072;7.800;2023-11-22T12:51:16;5.30;99.90
2663;DHT22;49701;48.072;7.800;2023-11-22T12:53:42;5.40;99.90
2663;DHT22;49701;48.072;7.800;2023-11-22T12:56:10;5.40;99.90
2663;DHT22;49701;48.072;7.800;2023-11-22T12:58:37;5.30;99.90
2663;DHT22;49701;48.072;7.800;2023-11-22T13:01:02;5.40;99.90
2663;DHT22;49701;48.072;7.800;2023-11-22T13:03:28;5.30;99.90
2663;DHT22;49701;48.072;7.800;2023-11-22T13:05:54;5.40;99.90
2663;DHT22;49701;48.072;7.800;2023-11-22T13:08:20;5.40;99.90
2663;DHT22;49701;48.072;7.800;2023-11-22T13:10:48;5.40;99.90
2663;DHT22;49701;48.072;7.800;2023-11-22T13:13:22;5.30;99.90
2663;DHT22;49701;48.072;7.800;2023-11-22T13:15:47;5.40;99.90
2663;DHT22;49701;48.072;7.800;2023-11-22T13:18:14;5.40;99.90
2663;DHT22;49701;48.072;7.800;2023-11-22T13:20:41;5.40;99.90
2663;DHT22;49701;48.072;7.800;2023-11-22T13:23:08;5.40;99.90
2663;DHT22;49701;48.072;7.800;2023-11-22T13:25:33;5.40;99.90
2663;DHT22;49701;48.072;7.800;2023-11-22T13:27:59;5.40;99.90
2663;DHT22;49701;48.072;7.800;2023-11-22T13:30:25;5.40;99.90
2663;DHT22;49701;48.072;7.800;2023-11-22T13:32:55;5.40;99.90
2663;DHT22;49701;48.072;7.800;2023-11-22T13:35:24;5.50;99.90
2663;DHT22;49701;48.072;7.800;2023-11-22T13:37:51;5.40;99.90
2663;DHT22;49701;48.072;7.800;2023-11-22T13:40:18;5.40;99.90
2663;DHT22;49701;48.072;7.800;2023-11-22T13:42:47;5.40;99.90
2663;DHT22;49701;48.072;7.800;2023-11-22T13:45:13;5.40;99.90
2663;DHT22;49701;48.072;7.800;2023-11-22T13:47:47;5.40;99.90
2663;DHT22;49701;48.072;7.800;2023-11-22T13:50:13;5.40;99.90
2663;DHT22;49701;48.072;7.800;2023-11-22T13:52:43;5.40;99.90
2663;DHT22;49701;48.072;7.800;2023-11-22T13:55:11;5.50;99.90
2663;DHT22;49701;48.072;7.800;2023-11-22T13:57:38;5.40;99.90
2663;DHT22;49701;48.072;7.800;2023-11-22T14:00:07;5.50;99.90
2663;DHT22;49701;48.072;7.800;2023-11-22T14:02:47;5.50;99.90
2663;DHT22;49701;48.072;7.800;2023-11-22T14:05:13;5.50;99.90
2663;DHT22;49701;48.072;7.800;2023-11-22T14:07:38;5.50;99.90
2663;DHT22;49701;48.072;7.800;2023-11-22T14:10:04;5.50;99.90
2663;DHT22;49701;48.072;7.800;2023-11-22T14:12:31;5.50;99.90
2663;DHT22;49701;48.072;7.800;2023-11-22T14:15:00;5.40;99.90
2663;DHT22;49701;48.072;7.800;2023-11-22T14:17:26;5.50;99.90
2663;DHT22;49701;48.072;7.800;2023-11-22T14:19:54;5.50;99.90
2663;DHT22;49701;48.072;7.800;2023-11-22T14:22:21;5.50;99.90
2663;DHT22;49701;48.072;7.800;2023-11-22T14:24:47;5.60;99.90
2663;DHT22;49701;48.072;7.800;2023-11-22T14:27:14;5.60;99.90
2663;DHT22;49701;48.072;7.800;2023-11-22T14:29:40;5.60;99.90
2663;DHT22;49701;48.072;7.800;2023-11-22T14:32:07;5.60;99.90
2663;DHT22;49701;48.072;7.800;2023-11-22T14:34:32;5.60;99.90
2663;DHT22;49701;48.072;7.800;2023-11-22T14:36:58;5.60;99.90
2663;DHT22;49701;48.072;7.800;2023-11-22T14:39:24;5.60;99.90
2663;DHT22;49701;48.072;7.800;2023-11-22T14:41:50;5.60;99.90
2663;DHT22;49701;48.072;7.800;2023-11-22T14:44:16;5.60;99.90
2663;DHT22;49701;48.072;7.800;2023-11-22T14:46:43;5.60;99.90
2663;DHT22;49701;48.072;7.800;2023-11-22T14:49:09;5.60;99.90
2663;DHT22;49701;48.072;7.800;2023-11-22T14:51:34;5.60;99.90
2663;DHT22;49701;48.072;7.800;2023-11-22T14:54:00;5.60;99.90
2663;DHT22;49701;48.072;7.800;2023-11-22T14:56:26;5.50;99.90
2663;DHT22;49701;48.072;7.800;2023-11-22T14:58:52;5.50;99.90
2663;DHT22;49701;48.072;7.800;2023-11-22T15:01:20;5.60;99.90
2663;DHT22;49701;48.072;7.800;2023-11-22T15:03:46;5.60;99.90
2663;DHT22;49701;48.072;7.800;2023-11-22T15:06:13;5.60;99.90
2663;DHT22;49701;48.072;7.800;2023-11-22T15:08:38;5.60;99.90
2663;DHT22;49701;48.072;7.800;2023-11-22T15:11:04;5.60;99.90
2663;DHT22;49701;48.072;7.800;2023-11-22T15:13:30;5.50;99.90
2663;DHT22;49701;48.072;7.800;2023-11-22T15:15:56;5.50;99.90
2663;DHT22;49701;48.072;7.800;2023-11-22T15:18:22;5.40;99.90
2663;DHT22;49701;48.072;7.800;2023-11-22T15:20:50;5.50;99.90
2663;DHT22;49701;48.072;7.800;2023-11-22T15:23:15;5.60;99.90
2663;DHT22;49701;48.072;7.800;2023-11-22T15:25:41;5.70;99.90
2663;DHT22;49701;48.072;7.800;2023-11-22T15:28:07;5.90;99.90
2663;DHT22;49701;48.072;7.800;2023-11-22T15:30:34;6.00;99.90
2663;DHT22;49701;48.072;7.800;2023-11-22T15:33:00;6.00;99.90
2663;DHT22;49701;48.072;7.800;2023-11-22T15:35:26;6.00;99.90
2663;DHT22;49701;48.072;7.800;2023-11-22T15:37:52;6.00;99.90
2663;DHT22;49701;48.072;7.800;2023-11-22T15:40:17;6.00;99.90
2663;DHT22;49701;48.072;7.800;2023-11-22T15:42:43;6.10;99.90
2663;DHT22;49701;48.072;7.800;2023-11-22T15:45:09;6.00;99.90
2663;DHT22;49701;48.072;7.800;2023-11-22T15:47:35;6.00;99.90
2663;DHT22;49701;48.072;7.800;2023-11-22T15:50:02;6.00;99.90
2663;DHT22;49701;48.072;7.800;2023-11-22T15:52:31;6.00;99.90
2663;DHT22;49701;48.072;7.800;2023-11-22T15:54:57;6.00;99.90
2663;DHT22;49701;48.072;7.800;2023-11-22T15:57:22;5.90;99.90
2663;DHT22;49701;48.072;7.800;2023-11-22T15:59:48;5.80;99.90
2663;DHT22;49701;48.072;7.800;2023-11-22T16:02:15;5.70;99.90
2663;DHT22;49701;48.072;7.800;2023-11-22T16:04:40;5.60;99.90